createdAt,value
2022-10-05T00:02:39.879Z,6.20
2022-10-05T00:11:02.755Z,5.90
2022-10-05T00:19:34.156Z,6.40
2022-10-05T00:36:21.523Z,6.70
2022-10-05T00:45:02.954Z,6.50
2022-10-05T00:53:31.904Z,7.30
2022-10-05T01:02:01.381Z,5.80
2022-10-05T01:10:43.051Z,6.90
2022-10-05T01:19:21.573Z,6.80
2022-10-05T01:27:47.482Z,6.80
2022-10-05T01:36:21.848Z,7.10
2022-10-05T01:44:56.937Z,6.10
2022-10-05T01:53:42.977Z,6.60
2022-10-05T02:02:13.163Z,7.40
2022-10-05T02:10:58.860Z,8.60
2022-10-05T02:19:30.839Z,7.80
2022-10-05T02:28:04.738Z,8.80
2022-10-05T02:36:34.733Z,9.20
2022-10-05T02:45:06.397Z,8.40
2022-10-05T02:53:35.301Z,12.00
2022-10-05T03:02:15.258Z,9.10
2022-10-05T03:11:07.383Z,9.60
2022-10-05T03:28:25.109Z,9.30
2022-10-05T03:36:48.486Z,8.70
2022-10-05T03:45:33.949Z,7.00
2022-10-05T03:54:29.071Z,8.00
2022-10-05T04:03:28.527Z,8.90
2022-10-05T04:11:56.629Z,8.00
2022-10-05T04:20:25.459Z,7.80
2022-10-05T04:28:57.963Z,8.10
2022-10-05T04:37:46.493Z,7.50
2022-10-05T04:46:24.143Z,7.30
2022-10-05T04:55:22.036Z,7.80
2022-10-05T05:03:57.055Z,7.60
2022-10-05T05:12:46.187Z,7.70
2022-10-05T05:21:12.336Z,7.90
2022-10-05T05:29:45.010Z,8.40
2022-10-05T05:38:21.912Z,7.50
2022-10-05T05:47:09.605Z,7.30
2022-10-05T05:56:00.645Z,6.80
2022-10-05T06:04:35.828Z,152.00
2022-10-05T06:13:06.511Z,8.20
2022-10-05T06:21:42.985Z,6.60
2022-10-05T06:30:09.640Z,10.10
2022-10-05T06:38:54.722Z,9.60
2022-10-05T06:47:24.041Z,6.60
2022-10-05T06:56:17.648Z,5.70
2022-10-05T07:05:32.556Z,6.10
2022-10-05T07:14:11.233Z,5.80
2022-10-05T07:23:03.969Z,55.90
2022-10-05T07:31:31.978Z,5.60
2022-10-05T07:40:10.451Z,5.00
2022-10-05T07:49:03.272Z,5.30
2022-10-05T07:57:45.326Z,4.80
2022-10-05T08:06:15.163Z,4.50
2022-10-05T08:14:57.493Z,4.70
2022-10-05T08:23:57.394Z,4.30
2022-10-05T08:32:45.395Z,4.30
2022-10-05T08:41:14.196Z,4.90
2022-10-05T08:49:46.310Z,4.00
2022-10-05T08:58:24.374Z,4.10
2022-10-05T09:06:51.303Z,4.40
2022-10-05T09:15:25.859Z,4.00
2022-10-05T09:24:05.064Z,5.50
2022-10-05T09:33:05.281Z,4.70
2022-10-05T09:41:31.216Z,5.90
2022-10-05T09:50:04.667Z,4.60
2022-10-05T09:58:47.502Z,3.50
2022-10-05T10:07:35.597Z,27.80
2022-10-05T10:16:33.172Z,5.20
2022-10-05T10:25:19.304Z,4.40
2022-10-05T10:34:18.812Z,4.60
2022-10-05T10:43:19.778Z,3.90
2022-10-05T10:52:16.254Z,19.20
2022-10-05T11:01:01.048Z,4.40
2022-10-05T11:09:58.875Z,4.20
2022-10-05T11:18:41.224Z,3.90
2022-10-05T11:36:18.419Z,5.10
2022-10-05T11:45:11.264Z,4.30
2022-10-05T11:53:39.315Z,4.00
2022-10-05T12:02:21.886Z,4.10
2022-10-05T12:10:59.966Z,3.90
2022-10-05T12:19:36.865Z,4.30
2022-10-05T12:28:13.174Z,3.90
2022-10-05T12:37:03.446Z,4.00
2022-10-05T12:45:53.731Z,5.80
2022-10-05T12:54:31.127Z,3.80
2022-10-05T13:03:10.906Z,5.00
2022-10-05T13:11:43.335Z,4.20
2022-10-05T13:20:47.190Z,3.40
2022-10-05T13:29:25.685Z,3.30
2022-10-05T13:38:15.177Z,3.00
2022-10-05T14:00:26.408Z,3.30
2022-10-05T14:08:53.464Z,7.90
2022-10-05T14:17:36.002Z,4.80
2022-10-05T14:25:59.594Z,4.10
2022-10-05T14:34:32.837Z,4.20
2022-10-05T14:42:57.471Z,4.30
2022-10-05T14:51:33.305Z,4.60
2022-10-05T15:00:18.712Z,10.10
2022-10-05T15:09:35.901Z,76.60
2022-10-05T15:18:08.442Z,22.50
2022-10-05T15:26:57.842Z,41.90
2022-10-05T15:35:40.449Z,69.30
2022-10-05T15:44:09.375Z,25.10
2022-10-05T15:52:49.651Z,7.80
2022-10-05T16:01:18.790Z,7.40
2022-10-05T16:09:59.923Z,459.90
2022-10-05T16:18:29.168Z,692.40
2022-10-05T16:27:00.005Z,479.80
2022-10-05T16:35:46.248Z,376.20
2022-10-05T16:44:22.636Z,97.60
2022-10-05T16:52:50.855Z,194.20
2022-10-05T17:01:19.835Z,61.10
2022-10-05T17:09:58.751Z,26.60
2022-10-05T17:18:50.488Z,19.90
2022-10-05T17:27:25.168Z,17.70
2022-10-05T17:36:03.521Z,11.20
2022-10-05T17:44:27.288Z,10.30
2022-10-05T17:53:40.547Z,16.60
2022-10-05T18:02:16.248Z,9.20
2022-10-05T18:11:12.564Z,7.00
2022-10-05T18:19:37.822Z,7.40
2022-10-05T18:28:10.182Z,7.90
2022-10-05T18:36:53.848Z,6.10
2022-10-05T18:45:36.524Z,6.80
2022-10-05T18:54:33.227Z,104.40
2022-10-05T19:03:14.378Z,7.20
2022-10-05T19:11:59.176Z,7.80
2022-10-05T19:20:54.230Z,8.40
2022-10-05T19:29:43.550Z,9.30
2022-10-05T19:38:06.393Z,7.20
2022-10-05T19:47:02.593Z,8.60
2022-10-05T19:55:34.660Z,8.40
2022-10-05T20:03:58.255Z,7.80
2022-10-05T20:12:23.462Z,13.70
2022-10-05T20:20:48.647Z,9.00
2022-10-05T20:29:14.231Z,8.80
2022-10-05T20:37:37.046Z,7.80
2022-10-05T20:45:59.988Z,7.30
2022-10-05T20:54:25.212Z,8.30
2022-10-05T21:02:48.853Z,8.80
2022-10-05T21:11:12.843Z,7.80
2022-10-05T21:19:39.807Z,7.10
2022-10-05T21:28:02.655Z,8.80
2022-10-05T21:36:26.290Z,14.30
2022-10-05T21:44:49.157Z,9.70
2022-10-05T21:53:16.430Z,8.20
2022-10-05T22:01:39.702Z,8.00
2022-10-05T22:10:06.180Z,8.20
2022-10-05T22:18:29.254Z,8.40
2022-10-05T22:26:52.962Z,8.90
2022-10-05T22:35:16.714Z,9.00
2022-10-05T22:43:40.465Z,8.40
2022-10-05T22:52:03.651Z,9.20
2022-10-05T23:00:40.452Z,8.50
2022-10-05T23:09:10.143Z,85.30
2022-10-05T23:17:36.148Z,12.50
2022-10-05T23:26:00.955Z,9.30
2022-10-05T23:34:26.168Z,8.90
2022-10-05T23:42:49.732Z,9.20
2022-10-05T23:51:14.974Z,9.30
2022-10-05T23:59:37.798Z,8.30
